Time;durP1;ratioP1;P1;durP2;ratioP2;P2;SDS_P1;SDS_P2;PMS_P1;PMS_P2;Temp;Humidity;BMP_temperature;BMP_pressure;BME280_temperature;BME280_humidity;BME280_pressure;Samples;Min_cycle;Max_cycle;Signal;HPM_P1;HPM_P2
2022/04/27 00:02:07;;;;;;;;;;;7.60;61.30;;;;;;5049407;28;19934;-74
2022/04/27 00:04:32;;;;;;;;;;;7.60;61.30;;;;;;5049507;28;20003;-72
2022/04/27 00:06:58;;;;;;;;;;;7.50;61.20;;;;;;5049491;28;20309;-71
2022/04/27 00:09:24;;;;;;;;;;;7.50;61.20;;;;;;5047956;28;19913;-71
2022/04/27 00:11:49;;;;;;;;;;;7.50;61.20;;;;;;5049162;28;19909;-71
2022/04/27 00:14:15;;;;;;;;;;;7.40;61.20;;;;;;5081041;28;19924;-72
2022/04/27 00:16:41;;;;;;;;;;;7.40;61.20;;;;;;5048574;28;20011;-72
2022/04/27 00:19:07;;;;;;;;;;;7.30;61.30;;;;;;5049065;28;20375;-72
2022/04/27 00:21:33;;;;;;;;;;;7.30;61.30;;;;;;5049045;28;19924;-71
2022/04/27 00:23:59;;;;;;;;;;;7.30;61.40;;;;;;5049052;28;19917;-72
2022/04/27 00:26:24;;;;;;;;;;;7.20;61.30;;;;;;5048961;28;19913;-74
2022/04/27 00:28:50;;;;;;;;;;;7.20;61.30;;;;;;5048977;28;20449;-74
2022/04/27 00:31:16;;;;;;;;;;;7.20;61.30;;;;;;5047298;28;20007;-74
2022/04/27 00:33:41;;;;;;;;;;;7.10;61.30;;;;;;5048863;28;19912;-74
2022/04/27 00:36:07;;;;;;;;;;;7.10;61.30;;;;;;5048742;28;19921;-71
2022/04/27 00:38:33;;;;;;;;;;;7.10;61.40;;;;;;5048648;28;19962;-74
2022/04/27 00:40:58;;;;;;;;;;;7.10;61.30;;;;;;5048684;28;19932;-74
2022/04/27 00:43:44;;;;;;;;;;;7.10;61.40;;;;;;5048579;28;20006;-74
2022/04/27 00:46:10;;;;;;;;;;;7.00;61.30;;;;;;5048341;28;19909;-73
2022/04/27 00:48:36;;;;;;;;;;;7.00;61.40;;;;;;5048616;28;20271;-73
2022/04/27 00:51:02;;;;;;;;;;;7.00;61.30;;;;;;5048999;28;20007;-74
2022/04/27 00:53:28;;;;;;;;;;;7.00;61.30;;;;;;5048547;28;19996;-73
2022/04/27 00:55:54;;;;;;;;;;;7.00;61.80;;;;;;5048424;28;19920;-73
2022/04/27 00:58:22;;;;;;;;;;;7.00;61.30;;;;;;5048413;28;19917;-73
2022/04/27 01:00:48;;;;;;;;;;;7.00;61.30;;;;;;5046971;28;20256;-73
2022/04/27 01:03:14;;;;;;;;;;;6.90;61.30;;;;;;5048346;28;19920;-73
2022/04/27 01:05:40;;;;;;;;;;;6.90;61.30;;;;;;5080581;28;19916;-73
2022/04/27 01:08:06;;;;;;;;;;;6.80;61.20;;;;;;5048215;28;19920;-73
2022/04/27 01:10:32;;;;;;;;;;;6.80;61.30;;;;;;5048234;28;19916;-74
2022/04/27 01:12:57;;;;;;;;;;;6.80;61.20;;;;;;5048646;28;19937;-73
2022/04/27 01:15:33;;;;;;;;;;;6.80;61.30;;;;;;5048286;28;20345;-73
2022/04/27 01:17:58;;;;;;;;;;;6.80;61.30;;;;;;5048078;28;19944;-74
2022/04/27 01:20:24;;;;;;;;;;;6.80;61.40;;;;;;5048111;28;20070;-73
2022/04/27 01:22:50;;;;;;;;;;;6.80;61.30;;;;;;5046938;28;19920;-74
2022/04/27 01:25:15;;;;;;;;;;;6.80;61.30;;;;;;5048001;28;20433;-74
2022/04/27 01:27:42;;;;;;;;;;;6.80;61.30;;;;;;5048043;28;19913;-73
2022/04/27 01:30:08;;;;;;;;;;;6.80;61.30;;;;;;5047648;28;20330;-74
2022/04/27 01:32:34;;;;;;;;;;;6.80;61.30;;;;;;5047954;28;20016;-74
2022/04/27 01:34:59;;;;;;;;;;;6.90;61.30;;;;;;5046671;28;20314;-73
2022/04/27 01:40:09;;;;;;;;;;;6.90;61.30;;;;;;5048185;28;19966;-74
2022/04/27 01:42:35;;;;;;;;;;;6.90;61.30;;;;;;5047852;28;19924;-73
2022/04/27 01:45:01;;;;;;;;;;;6.80;61.30;;;;;;5047750;28;19916;-74
2022/04/27 01:47:27;;;;;;;;;;;6.80;61.20;;;;;;5047683;28;20375;-73
2022/04/27 01:49:53;;;;;;;;;;;6.80;61.30;;;;;;5047924;28;20000;-74
2022/04/27 01:55:02;;;;;;;;;;;6.70;61.40;;;;;;5048057;28;19935;-73
2022/04/27 01:57:28;;;;;;;;;;;6.70;61.50;;;;;;5047785;28;20007;-74
2022/04/27 01:59:55;;;;;;;;;;;6.70;61.60;;;;;;5047644;28;19959;-74
2022/04/27 02:02:20;;;;;;;;;;;6.60;61.60;;;;;;5047591;28;20033;-73
2022/04/27 02:04:46;;;;;;;;;;;6.60;61.60;;;;;;5047602;28;20005;-73
2022/04/27 02:07:11;;;;;;;;;;;6.60;61.60;;;;;;5047771;28;19916;-74
2022/04/27 02:09:37;;;;;;;;;;;6.60;61.50;;;;;;5047603;28;19909;-73
2022/04/27 02:12:06;;;;;;;;;;;6.60;61.50;;;;;;5047568;28;19917;-73
2022/04/27 02:14:31;;;;;;;;;;;6.60;61.50;;;;;;5047452;28;20283;-73
2022/04/27 02:16:57;;;;;;;;;;;6.50;61.40;;;;;;5046458;28;19909;-73
2022/04/27 02:19:23;;;;;;;;;;;6.50;61.40;;;;;;5047468;28;20363;-74
2022/04/27 02:21:49;;;;;;;;;;;6.50;61.40;;;;;;5047461;28;19917;-73
2022/04/27 02:24:14;;;;;;;;;;;6.50;61.40;;;;;;5047527;28;19992;-74
2022/04/27 02:26:42;;;;;;;;;;;6.40;61.40;;;;;;5047471;28;19917;-73
2022/04/27 02:29:11;;;;;;;;;;;6.40;61.40;;;;;;5046113;28;20359;-73
2022/04/27 02:31:37;;;;;;;;;;;6.40;61.40;;;;;;5047211;28;19925;-73
2022/04/27 02:34:02;;;;;;;;;;;6.40;61.50;;;;;;5047501;28;20274;-73
2022/04/27 02:36:28;;;;;;;;;;;6.40;61.40;;;;;;5047436;28;19975;-74
2022/04/27 02:38:53;;;;;;;;;;;6.40;61.50;;;;;;5047738;28;20397;-73
2022/04/27 02:41:19;;;;;;;;;;;6.40;61.50;;;;;;5050899;28;19930;-73
2022/04/27 02:43:45;;;;;;;;;;;6.30;61.40;;;;;;5051070;28;19909;-74
2022/04/27 02:46:11;;;;;;;;;;;6.30;61.40;;;;;;5051403;28;19924;-74
2022/04/27 02:51:48;;;;;;;;;;;6.30;61.40;;;;;;5051424;28;19913;-73
2022/04/27 02:54:06;;;;;;;;;;;6.30;61.40;;;;;;5051172;28;19920;-73
2022/04/27 02:56:31;;;;;;;;;;;6.30;61.50;;;;;;5049501;28;19916;-74
2022/04/27 02:58:58;;;;;;;;;;;6.30;61.40;;;;;;5050684;28;19913;-74
2022/04/27 03:01:23;;;;;;;;;;;6.30;61.50;;;;;;5050875;28;19921;-73
2022/04/27 03:03:49;;;;;;;;;;;6.20;61.40;;;;;;5050693;28;19912;-74
2022/04/27 03:06:14;;;;;;;;;;;6.20;61.40;;;;;;5050563;28;19917;-74
2022/04/27 03:08:40;;;;;;;;;;;6.20;61.40;;;;;;5050388;28;19924;-73
2022/04/27 03:11:05;;;;;;;;;;;6.20;61.40;;;;;;5049284;28;19913;-73
2022/04/27 03:13:31;;;;;;;;;;;6.20;61.40;;;;;;5050354;28;20005;-74
2022/04/27 03:15:56;;;;;;;;;;;6.20;61.40;;;;;;5050515;28;19913;-74
2022/04/27 03:18:22;;;;;;;;;;;6.20;61.40;;;;;;5050201;28;20424;-74
2022/04/27 03:20:48;;;;;;;;;;;6.10;61.40;;;;;;5050147;28;20369;-74
2022/04/27 03:23:14;;;;;;;;;;;6.10;61.30;;;;;;5050586;28;20027;-74
2022/04/27 03:25:40;;;;;;;;;;;6.10;61.40;;;;;;5050175;28;20310;-74
2022/04/27 03:28:06;;;;;;;;;;;6.10;61.40;;;;;;5050078;28;19909;-73
2022/04/27 03:30:32;;;;;;;;;;;6.00;61.40;;;;;;5049848;28;19925;-73
2022/04/27 03:32:59;;;;;;;;;;;6.00;61.50;;;;;;5050080;28;20657;-74
2022/04/27 03:35:25;;;;;;;;;;;6.00;61.40;;;;;;5050044;28;19959;-73
2022/04/27 03:37:50;;;;;;;;;;;6.00;61.60;;;;;;5049870;28;19921;-74
2022/04/27 03:40:16;;;;;;;;;;;5.90;61.50;;;;;;5049810;28;19913;-73
2022/04/27 03:42:41;;;;;;;;;;;5.90;61.60;;;;;;5081946;28;19916;-74
2022/04/27 03:45:07;;;;;;;;;;;5.90;61.60;;;;;;5050279;28;19920;-74
2022/04/27 03:47:33;;;;;;;;;;;5.80;61.50;;;;;;5048395;28;19916;-74
2022/04/27 03:50:04;;;;;;;;;;;5.80;61.50;;;;;;5049774;28;19971;-74
2022/04/27 03:52:32;;;;;;;;;;;5.70;61.50;;;;;;5049720;28;19945;-74
2022/04/27 03:55:00;;;;;;;;;;;5.60;61.60;;;;;;5048266;28;19912;-74
2022/04/27 03:57:27;;;;;;;;;;;5.50;61.60;;;;;;5049455;28;19916;-74
2022/04/27 03:59:53;;;;;;;;;;;5.50;61.60;;;;;;5049316;28;20352;-74
2022/04/27 04:02:18;;;;;;;;;;;5.50;61.60;;;;;;5049304;28;19917;-74
2022/04/27 04:04:44;;;;;;;;;;;5.50;61.60;;;;;;5049138;28;19967;-74
2022/04/27 04:07:12;;;;;;;;;;;5.40;61.50;;;;;;5049859;28;19921;-74
2022/04/27 04:09:38;;;;;;;;;;;5.50;61.60;;;;;;5047823;28;20355;-73
2022/04/27 04:12:04;;;;;;;;;;;5.50;61.50;;;;;;5049332;28;19917;-74
2022/04/27 04:14:30;;;;;;;;;;;5.40;61.40;;;;;;5049286;28;20402;-74
2022/04/27 04:16:56;;;;;;;;;;;5.40;61.50;;;;;;5049289;28;19952;-73
2022/04/27 04:19:21;;;;;;;;;;;5.30;61.40;;;;;;5049026;28;19913;-73
2022/04/27 04:21:47;;;;;;;;;;;5.30;61.50;;;;;;5049002;28;19917;-73
2022/04/27 04:24:12;;;;;;;;;;;5.20;61.60;;;;;;5047810;28;19920;-74
2022/04/27 04:29:22;;;;;;;;;;;5.20;61.70;;;;;;5049261;28;19920;-74
2022/04/27 04:31:47;;;;;;;;;;;5.20;61.70;;;;;;5048761;28;19925;-74
2022/04/27 04:34:13;;;;;;;;;;;5.20;61.70;;;;;;5047767;28;19913;-74
2022/04/27 04:36:39;;;;;;;;;;;5.20;61.70;;;;;;5047538;28;19913;-74
2022/04/27 04:39:04;;;;;;;;;;;5.20;61.60;;;;;;5048699;28;19917;-74
2022/04/27 04:41:30;;;;;;;;;;;5.20;61.60;;;;;;5048703;28;20029;-74
2022/04/27 04:43:55;;;;;;;;;;;5.20;62.10;;;;;;5048661;28;20007;-74
2022/04/27 04:46:21;;;;;;;;;;;5.20;61.60;;;;;;5048633;28;19909;-74
2022/04/27 04:48:46;;;;;;;;;;;5.20;61.50;;;;;;5048926;28;20051;-74
2022/04/27 04:51:12;;;;;;;;;;;5.20;61.50;;;;;;5048545;28;20411;-74
2022/04/27 04:53:37;;;;;;;;;;;5.20;61.50;;;;;;5048555;28;20306;-73
2022/04/27 04:56:03;;;;;;;;;;;5.20;61.50;;;;;;5080772;28;19956;-73
2022/04/27 04:58:29;;;;;;;;;;;5.20;61.40;;;;;;5080509;28;19912;-74
2022/04/27 05:00:55;;;;;;;;;;;5.20;61.40;;;;;;5047877;28;20366;-74
2022/04/27 05:03:20;;;;;;;;;;;5.10;61.40;;;;;;5048732;28;19917;-73
2022/04/27 05:05:46;;;;;;;;;;;5.10;61.50;;;;;;5048120;28;19966;-73
2022/04/27 05:08:11;;;;;;;;;;;5.10;61.50;;;;;;5048178;28;19917;-74
2022/04/27 05:10:37;;;;;;;;;;;5.10;61.50;;;;;;5048169;28;19913;-73
2022/04/27 05:13:03;;;;;;;;;;;5.10;61.60;;;;;;5046822;28;19912;-74
2022/04/27 05:15:29;;;;;;;;;;;5.10;61.60;;;;;;5047949;28;20351;-74
2022/04/27 05:17:54;;;;;;;;;;;5.10;61.50;;;;;;5047903;28;19913;-74
2022/04/27 05:20:20;;;;;;;;;;;5.10;61.40;;;;;;5048645;28;19966;-74
2022/04/27 05:22:45;;;;;;;;;;;5.10;61.40;;;;;;5048144;28;19935;-73
2022/04/27 05:25:11;;;;;;;;;;;5.10;61.30;;;;;;5048135;28;20320;-74
2022/04/27 05:27:37;;;;;;;;;;;5.20;61.30;;;;;;5047926;28;19909;-74
2022/04/27 05:32:47;;;;;;;;;;;5.20;61.50;;;;;;5048769;28;19943;-74
2022/04/27 05:35:13;;;;;;;;;;;5.20;61.60;;;;;;5048001;28;19916;-73
2022/04/27 05:37:39;;;;;;;;;;;5.20;61.60;;;;;;5046720;28;19958;-74
2022/04/27 05:40:05;;;;;;;;;;;5.20;61.60;;;;;;5048082;28;19978;-74
2022/04/27 05:42:31;;;;;;;;;;;5.30;61.70;;;;;;5047887;28;19917;-73
2022/04/27 05:44:57;;;;;;;;;;;5.30;61.70;;;;;;5047936;28;20007;-73
2022/04/27 05:47:23;;;;;;;;;;;5.40;61.70;;;;;;5047813;28;19909;-73
2022/04/27 05:49:50;;;;;;;;;;;5.50;61.80;;;;;;5079589;28;20458;-74
2022/04/27 05:52:16;;;;;;;;;;;5.50;62.20;;;;;;5047670;28;19917;-74
2022/04/27 05:54:41;;;;;;;;;;;5.60;61.70;;;;;;5047564;28;19928;-74
2022/04/27 05:57:07;;;;;;;;;;;5.60;61.60;;;;;;5079904;28;19917;-74
2022/04/27 05:59:33;;;;;;;;;;;5.70;61.60;;;;;;5047435;28;20481;-74
2022/04/27 06:01:58;;;;;;;;;;;5.80;61.60;;;;;;5047562;28;19916;-74
2022/04/27 06:04:26;;;;;;;;;;;5.80;61.60;;;;;;5047562;28;20003;-74
2022/04/27 06:06:55;;;;;;;;;;;6.00;61.60;;;;;;5047547;28;19908;-74
2022/04/27 06:09:20;;;;;;;;;;;6.00;61.60;;;;;;5046187;28;20010;-74
2022/04/27 06:11:46;;;;;;;;;;;6.10;61.60;;;;;;5046457;28;20364;-65
2022/04/27 06:14:12;;;;;;;;;;;6.20;61.70;;;;;;5049822;28;20306;-74
2022/04/27 06:16:37;;;;;;;;;;;6.40;61.70;;;;;;5051268;28;20360;-74
2022/04/27 06:19:03;;;;;;;;;;;6.50;61.80;;;;;;5051206;28;20248;-74
2022/04/27 06:21:31;;;;;;;;;;;6.80;61.90;;;;;;5051214;28;19920;-74
2022/04/27 06:23:58;;;;;;;;;;;7.00;61.60;;;;;;5050005;28;20275;-73
2022/04/27 06:26:24;;;;;;;;;;;7.10;61.40;;;;;;5051259;28;19944;-74
2022/04/27 06:28:50;;;;;;;;;;;7.20;61.50;;;;;;5050784;28;19963;-74
2022/04/27 06:31:15;;;;;;;;;;;7.30;61.50;;;;;;5050623;28;19936;-74
2022/04/27 06:33:41;;;;;;;;;;;7.40;61.60;;;;;;5050765;28;20442;-74
2022/04/27 06:36:06;;;;;;;;;;;7.60;61.70;;;;;;5050654;28;20231;-73
2022/04/27 06:38:32;;;;;;;;;;;7.70;61.70;;;;;;5050646;28;19936;-74
2022/04/27 06:40:57;;;;;;;;;;;7.90;61.70;;;;;;5050861;28;19916;-74
2022/04/27 06:43:23;;;;;;;;;;;8.10;61.70;;;;;;5050877;28;19924;-74
2022/04/27 06:45:48;;;;;;;;;;;8.20;61.70;;;;;;5050563;28;20371;-74
2022/04/27 06:48:14;;;;;;;;;;;8.40;61.70;;;;;;5050340;28;19913;-74
2022/04/27 06:50:40;;;;;;;;;;;8.50;61.70;;;;;;5050595;28;19916;-74
2022/04/27 06:53:05;;;;;;;;;;;8.70;61.80;;;;;;5050305;28;19916;-74
2022/04/27 06:55:31;;;;;;;;;;;8.90;61.80;;;;;;5050185;28;19917;-74
2022/04/27 06:57:56;;;;;;;;;;;9.00;61.70;;;;;;5048957;28;19913;-74
2022/04/27 07:00:22;;;;;;;;;;;9.20;61.70;;;;;;5049549;28;19919;-74
2022/04/27 07:02:48;;;;;;;;;;;9.30;61.70;;;;;;5050077;28;19913;-73
2022/04/27 07:05:17;;;;;;;;;;;9.40;61.70;;;;;;5050181;28;19912;-74
2022/04/27 07:07:46;;;;;;;;;;;9.60;62.00;;;;;;5049900;28;19908;-74
2022/04/27 07:10:13;;;;;;;;;;;9.80;62.00;;;;;;5049621;28;19913;-74
2022/04/27 07:12:39;;;;;;;;;;;10.00;62.40;;;;;;5049801;28;19917;-75
2022/04/27 07:15:05;;;;;;;;;;;10.40;62.80;;;;;;5049745;28;19954;-74
2022/04/27 07:17:31;;;;;;;;;;;10.90;63.30;;;;;;5049511;28;19913;-72
2022/04/27 07:19:56;;;;;;;;;;;11.80;62.90;;;;;;5049133;28;20014;-72
2022/04/27 07:22:22;;;;;;;;;;;12.50;62.80;;;;;;5049412;28;20274;-72
2022/04/27 07:24:49;;;;;;;;;;;12.80;61.90;;;;;;5048996;28;19970;-72
2022/04/27 07:27:18;;;;;;;;;;;12.90;62.00;;;;;;5049164;28;19916;-73
2022/04/27 07:29:43;;;;;;;;;;;13.20;62.00;;;;;;5081068;28;19955;-71
2022/04/27 07:32:09;;;;;;;;;;;13.70;61.90;;;;;;5048153;28;19968;-72
2022/04/27 07:34:35;;;;;;;;;;;13.90;61.80;;;;;;5049300;28;19913;-73
2022/04/27 07:37:02;;;;;;;;;;;14.40;62.70;;;;;;5081252;28;19958;-73
2022/04/27 07:39:28;;;;;;;;;;;15.60;63.00;;;;;;5049024;28;20337;-73
2022/04/27 07:41:54;;;;;;;;;;;16.90;62.50;;;;;;5047489;28;19916;-72
2022/04/27 07:44:19;;;;;;;;;;;18.00;62.30;;;;;;5047144;28;20291;-73
2022/04/27 07:46:47;;;;;;;;;;;19.00;61.70;;;;;;5048994;28;19913;-73
2022/04/27 07:49:13;;;;;;;;;;;19.60;61.60;;;;;;5048313;28;19908;-74
2022/04/27 07:51:39;;;;;;;;;;;20.30;61.50;;;;;;5048734;28;20299;-73
2022/04/27 07:54:05;;;;;;;;;;;21.00;61.10;;;;;;5048340;28;19999;-73
2022/04/27 07:56:30;;;;;;;;;;;21.30;61.30;;;;;;5048585;28;19916;-73
2022/04/27 07:58:56;;;;;;;;;;;21.60;61.20;;;;;;5048414;28;20320;-73
2022/04/27 08:01:21;;;;;;;;;;;22.00;61.40;;;;;;5046709;28;19923;-73
2022/04/27 08:03:47;;;;;;;;;;;22.60;61.20;;;;;;5048605;28;19970;-73
2022/04/27 08:06:12;;;;;;;;;;;23.00;61.30;;;;;;5048666;28;19913;-74
2022/04/27 08:08:38;;;;;;;;;;;23.50;61.10;;;;;;5048335;28;20359;-73
2022/04/27 08:11:04;;;;;;;;;;;23.70;60.30;;;;;;5048443;28;19921;-74
2022/04/27 08:13:31;;;;;;;;;;;23.60;60.70;;;;;;5048211;28;19920;-73
2022/04/27 08:15:57;;;;;;;;;;;23.40;60.60;;;;;;5048769;28;19999;-74
2022/04/27 08:18:22;;;;;;;;;;;23.40;61.10;;;;;;5048209;28;20003;-73
2022/04/27 08:23:34;;;;;;;;;;;23.60;61.40;;;;;;5048494;28;20011;-73
2022/04/27 08:26:00;;;;;;;;;;;23.30;61.20;;;;;;5047925;28;19913;-73
2022/04/27 08:28:27;;;;;;;;;;;23.30;61.50;;;;;;5047955;28;19932;-73
2022/04/27 08:30:53;;;;;;;;;;;23.80;61.50;;;;;;5048057;28;19928;-73
2022/04/27 08:33:19;;;;;;;;;;;24.40;61.50;;;;;;5046840;28;19986;-73
2022/04/27 08:35:45;;;;;;;;;;;24.90;61.10;;;;;;5047632;28;19957;-73
2022/04/27 08:38:11;;;;;;;;;;;25.30;61.00;;;;;;5047930;28;19916;-73
2022/04/27 08:40:40;;;;;;;;;;;25.10;60.00;;;;;;5046476;28;19908;-73
2022/04/27 08:43:06;;;;;;;;;;;24.10;59.60;;;;;;5046451;28;20395;-73
2022/04/27 08:45:33;;;;;;;;;;;23.00;59.90;;;;;;5048001;28;19913;-73
2022/04/27 08:47:59;;;;;;;;;;;22.60;61.30;;;;;;5030044;28;19971;-73
2022/04/27 08:50:25;;;;;;;;;;;22.60;62.10;;;;;;5047608;28;19913;-73
2022/04/27 08:52:51;;;;;;;;;;;23.00;62.50;;;;;;5047925;28;19919;-73
2022/04/27 08:55:17;;;;;;;;;;;23.40;62.20;;;;;;5080099;28;20346;-73
2022/04/27 08:57:43;;;;;;;;;;;23.90;61.90;;;;;;5047736;28;20306;-73
2022/04/27 09:00:10;;;;;;;;;;;24.30;61.90;;;;;;5047641;28;20355;-73
2022/04/27 09:02:35;;;;;;;;;;;24.80;61.80;;;;;;5046300;28;19936;-73
2022/04/27 09:05:07;;;;;;;;;;;25.30;61.50;;;;;;5047317;28;19913;-73
2022/04/27 09:07:39;;;;;;;;;;;25.90;60.80;;;;;;5047491;28;19916;-73
2022/04/27 09:10:06;;;;;;;;;;;25.90;60.10;;;;;;5047752;28;20296;-73
2022/04/27 09:12:32;;;;;;;;;;;25.90;59.50;;;;;;5047474;28;19909;-74
2022/04/27 09:15:05;;;;;;;;;;;25.40;58.90;;;;;;5047156;28;19939;-73
2022/04/27 09:23:03;;;;;;;;;;;26.00;59.70;;;;;;5047678;28;19924;-73
2022/04/27 09:25:29;;;;;;;;;;;26.10;57.40;;;;;;5047143;28;19908;-73
2022/04/27 09:27:55;;;;;;;;;;;25.40;57.30;;;;;;5047144;28;19913;-72
2022/04/27 09:30:25;;;;;;;;;;;25.10;58.10;;;;;;5047056;28;20338;-73
2022/04/27 09:32:51;;;;;;;;;;;25.10;58.60;;;;;;5047359;28;19959;-73
2022/04/27 09:35:33;;;;;;;;;;;25.30;58.90;;;;;;5047905;28;20421;-73
2022/04/27 09:38:15;;;;;;;;;;;25.10;58.10;;;;;;5047837;28;19944;-73
2022/04/27 09:40:44;;;;;;;;;;;25.40;58.90;;;;;;5048125;28;19939;-73
2022/04/27 09:43:12;;;;;;;;;;;25.70;58.00;;;;;;5047753;28;19924;-73
2022/04/27 09:45:38;;;;;;;;;;;25.90;58.60;;;;;;5047857;28;19909;-73
2022/04/27 09:48:04;;;;;;;;;;;26.30;58.00;;;;;;5053701;28;19924;-73
2022/04/27 09:50:49;;;;;;;;;;;26.60;57.60;;;;;;5060288;28;20436;-73
2022/04/27 09:53:15;;;;;;;;;;;26.60;58.00;;;;;;5061710;28;19916;-72
2022/04/27 09:55:51;;;;;;;;;;;26.60;58.10;;;;;;5058390;28;19966;-73
2022/04/27 09:58:18;;;;;;;;;;;26.60;58.00;;;;;;5069291;28;20324;-73
2022/04/27 10:00:50;;;;;;;;;;;25.90;56.80;;;;;;5071333;28;20268;-73
2022/04/27 10:03:18;;;;;;;;;;;25.10;57.10;;;;;;5067988;28;20462;-73
2022/04/27 10:05:45;;;;;;;;;;;25.00;58.10;;;;;;5061639;28;19921;-73
2022/04/27 10:08:11;;;;;;;;;;;24.80;57.00;;;;;;5070770;28;19958;-76
2022/04/27 10:10:37;;;;;;;;;;;24.00;57.50;;;;;;5070754;28;19909;-73
2022/04/27 10:13:03;;;;;;;;;;;24.00;58.30;;;;;;5071374;28;19923;-73
2022/04/27 10:15:29;;;;;;;;;;;23.90;58.00;;;;;;5071961;28;19909;-72
2022/04/27 10:17:55;;;;;;;;;;;24.30;58.10;;;;;;5072264;28;19913;-74
2022/04/27 10:20:32;;;;;;;;;;;24.80;58.10;;;;;;5072267;28;19913;-74
2022/04/27 10:23:15;;;;;;;;;;;25.20;57.70;;;;;;5072819;28;19916;-74
2022/04/27 10:25:41;;;;;;;;;;;26.00;58.30;;;;;;5071932;28;20266;-73
2022/04/27 10:28:18;;;;;;;;;;;25.80;56.80;;;;;;5071631;28;19912;-74
2022/04/27 10:30:44;;;;;;;;;;;25.50;56.80;;;;;;5071604;28;20291;-72
2022/04/27 10:33:09;;;;;;;;;;;24.90;56.90;;;;;;5071770;28;19917;-74
2022/04/27 10:35:36;;;;;;;;;;;24.60;56.60;;;;;;5072526;28;19992;-75
2022/04/27 10:38:03;;;;;;;;;;;24.80;57.20;;;;;;5071477;28;19920;-75
2022/04/27 10:40:29;;;;;;;;;;;25.40;57.50;;;;;;5071012;28;19955;-76
2022/04/27 10:43:01;;;;;;;;;;;25.70;57.00;;;;;;5071071;28;19916;-73
2022/04/27 10:45:27;;;;;;;;;;;25.90;57.00;;;;;;5103585;28;19920;-75
2022/04/27 10:47:53;;;;;;;;;;;25.70;56.70;;;;;;5071059;28;19913;-73
2022/04/27 10:50:20;;;;;;;;;;;25.50;56.80;;;;;;5071321;28;20381;-72
2022/04/27 10:52:55;;;;;;;;;;;25.40;56.00;;;;;;5070757;28;19915;-74
2022/04/27 10:55:35;;;;;;;;;;;25.50;56.70;;;;;;5070803;28;20318;-73
2022/04/27 10:58:17;;;;;;;;;;;25.70;56.70;;;;;;5071130;28;19908;-76
2022/04/27 11:01:01;;;;;;;;;;;26.30;56.80;;;;;;5070098;28;19920;-74
2022/04/27 11:03:28;;;;;;;;;;;25.90;55.80;;;;;;5064880;28;19912;-71
2022/04/27 11:05:56;;;;;;;;;;;25.60;56.50;;;;;;5061297;28;19909;-74
2022/04/27 11:08:28;;;;;;;;;;;25.70;56.20;;;;;;5058576;28;19909;-78
2022/04/27 11:10:55;;;;;;;;;;;25.60;55.80;;;;;;5072371;28;19913;-73
2022/04/27 11:13:25;;;;;;;;;;;25.60;56.40;;;;;;5060484;28;19983;-75
2022/04/27 11:15:51;;;;;;;;;;;25.90;56.80;;;;;;5069473;28;20288;-73
2022/04/27 11:18:16;;;;;;;;;;;26.20;56.00;;;;;;5070260;28;19912;-72
2022/04/27 11:20:43;;;;;;;;;;;26.20;55.50;;;;;;5069891;28;19962;-71
2022/04/27 11:23:20;;;;;;;;;;;26.30;55.60;;;;;;5069875;28;19915;-74
2022/04/27 11:25:49;;;;;;;;;;;26.30;55.20;;;;;;5069631;28;19920;-72
2022/04/27 11:28:16;;;;;;;;;;;25.90;54.60;;;;;;5069439;28;20362;-71
2022/04/27 11:30:41;;;;;;;;;;;25.30;54.30;;;;;;5069624;28;20367;-71
2022/04/27 11:33:07;;;;;;;;;;;25.40;55.00;;;;;;5069678;28;19926;-72
2022/04/27 11:35:39;;;;;;;;;;;25.70;54.50;;;;;;5069606;28;20309;-73
2022/04/27 11:38:06;;;;;;;;;;;25.60;54.70;;;;;;5067664;28;20373;-74
2022/04/27 11:40:34;;;;;;;;;;;26.00;54.20;;;;;;5069639;28;19995;-74
2022/04/27 11:43:00;;;;;;;;;;;26.20;53.20;;;;;;5069782;28;20386;-73
2022/04/27 11:45:26;;;;;;;;;;;26.40;53.30;;;;;;5069672;28;19916;-74
2022/04/27 11:48:10;;;;;;;;;;;26.50;53.50;;;;;;5069522;28;19924;-75
2022/04/27 11:50:37;;;;;;;;;;;26.70;53.10;;;;;;5068769;28;19913;-74
2022/04/27 11:53:02;;;;;;;;;;;26.80;53.40;;;;;;5068380;28;19948;-72
2022/04/27 11:55:28;;;;;;;;;;;27.00;53.50;;;;;;5100257;28;20513;-73
2022/04/27 11:57:54;;;;;;;;;;;27.00;52.70;;;;;;5068310;28;19913;-73
2022/04/27 12:00:20;;;;;;;;;;;26.10;51.80;;;;;;5068137;28;20255;-74
2022/04/27 12:02:47;;;;;;;;;;;25.10;52.50;;;;;;5068246;28;19969;-71
2022/04/27 12:05:13;;;;;;;;;;;24.30;53.00;;;;;;5069564;28;19909;-74
2022/04/27 12:07:39;;;;;;;;;;;23.60;53.40;;;;;;5069410;28;19913;-73
2022/04/27 12:10:14;;;;;;;;;;;23.40;54.00;;;;;;5101226;28;19913;-73
2022/04/27 12:12:40;;;;;;;;;;;23.00;54.10;;;;;;5068561;28;19916;-74
2022/04/27 12:15:07;;;;;;;;;;;23.10;54.20;;;;;;5068996;28;19912;-73
2022/04/27 12:17:44;;;;;;;;;;;23.30;54.40;;;;;;5069475;28;19908;-73
2022/04/27 12:20:21;;;;;;;;;;;23.30;53.80;;;;;;5069074;28;19908;-73
2022/04/27 12:22:51;;;;;;;;;;;22.70;53.60;;;;;;5067740;28;20330;-73
2022/04/27 12:25:16;;;;;;;;;;;22.60;54.80;;;;;;5064947;28;20014;-73
2022/04/27 12:27:42;;;;;;;;;;;23.10;54.80;;;;;;5069301;28;19912;-74
2022/04/27 12:30:08;;;;;;;;;;;23.70;55.20;;;;;;5070457;28;19912;-74
2022/04/27 12:32:34;;;;;;;;;;;23.80;54.30;;;;;;5069373;28;20262;-73
2022/04/27 12:37:49;;;;;;;;;;;24.00;53.90;;;;;;5070631;28;19939;-74
2022/04/27 12:40:15;;;;;;;;;;;24.10;53.60;;;;;;5070818;28;20275;-72
2022/04/27 12:43:00;;;;;;;;;;;24.20;53.90;;;;;;5070523;28;19942;-71
2022/04/27 12:45:26;;;;;;;;;;;24.40;53.80;;;;;;5070573;28;20003;-73
2022/04/27 12:47:52;;;;;;;;;;;24.50;52.80;;;;;;5068730;28;20021;-75
2022/04/27 12:50:18;;;;;;;;;;;23.90;52.40;;;;;;5069627;28;19908;-74
2022/04/27 12:52:45;;;;;;;;;;;23.70;53.20;;;;;;5070513;28;19919;-74
2022/04/27 12:55:14;;;;;;;;;;;23.80;53.30;;;;;;5069709;28;19913;-76
2022/04/27 12:57:45;;;;;;;;;;;23.80;52.70;;;;;;5069659;28;19924;-74
2022/04/27 13:00:12;;;;;;;;;;;23.30;52.40;;;;;;5068987;28;19919;-74
2022/04/27 13:02:37;;;;;;;;;;;22.70;52.20;;;;;;5069010;28;19967;-72
2022/04/27 13:05:03;;;;;;;;;;;22.10;51.70;;;;;;5069338;28;20457;-73
2022/04/27 13:07:29;;;;;;;;;;;21.20;51.80;;;;;;5067999;28;20101;-73
2022/04/27 13:12:39;;;;;;;;;;;20.00;52.70;;;;;;5068287;28;19932;-72
2022/04/27 13:15:06;;;;;;;;;;;19.60;53.10;;;;;;5068670;28;20247;-74
2022/04/27 13:17:31;;;;;;;;;;;19.30;53.80;;;;;;5068703;28;19912;-74
2022/04/27 13:19:57;;;;;;;;;;;19.30;54.40;;;;;;5068179;28;19915;-71
2022/04/27 13:22:26;;;;;;;;;;;19.60;54.50;;;;;;5067987;28;20002;-73
2022/04/27 13:24:51;;;;;;;;;;;19.90;55.00;;;;;;5068160;28;19912;-75
2022/04/27 13:27:18;;;;;;;;;;;20.30;54.80;;;;;;5065386;28;19919;-72
2022/04/27 13:29:44;;;;;;;;;;;20.30;54.30;;;;;;5056112;28;20328;-73
2022/04/27 13:32:09;;;;;;;;;;;20.30;54.00;;;;;;5057235;28;19935;-72
2022/04/27 13:34:37;;;;;;;;;;;20.00;53.80;;;;;;5062432;28;20440;-73
2022/04/27 13:37:03;;;;;;;;;;;19.90;53.70;;;;;;5083024;28;19959;-73
2022/04/27 13:39:29;;;;;;;;;;;19.70;53.70;;;;;;5058967;28;19955;-72
2022/04/27 13:41:56;;;;;;;;;;;19.60;53.40;;;;;;5056230;28;19924;-73
2022/04/27 13:44:21;;;;;;;;;;;19.30;53.50;;;;;;5056812;28;19982;-73
2022/04/27 13:46:47;;;;;;;;;;;19.20;53.80;;;;;;5059611;28;20371;-72
2022/04/27 13:49:13;;;;;;;;;;;19.00;53.90;;;;;;5056586;28;19940;-72
2022/04/27 13:51:38;;;;;;;;;;;19.00;54.20;;;;;;5056270;28;20008;-72
2022/04/27 13:54:04;;;;;;;;;;;18.90;54.00;;;;;;5062171;28;19913;-73
2022/04/27 13:56:30;;;;;;;;;;;18.90;54.30;;;;;;5058447;28;20310;-73
2022/04/27 13:58:55;;;;;;;;;;;18.90;54.00;;;;;;5051765;28;19921;-72
2022/04/27 14:01:21;;;;;;;;;;;18.90;53.90;;;;;;5059755;28;19917;-72
2022/04/27 14:03:47;;;;;;;;;;;18.80;54.00;;;;;;5067435;28;19925;-72
2022/04/27 14:06:14;;;;;;;;;;;18.70;54.10;;;;;;5100202;28;19932;-73
2022/04/27 14:08:40;;;;;;;;;;;18.70;54.10;;;;;;5067696;28;20342;-71
2022/04/27 14:11:05;;;;;;;;;;;18.70;53.70;;;;;;5067783;28;19932;-72
2022/04/27 14:13:31;;;;;;;;;;;18.30;53.60;;;;;;5067407;28;20038;-71
2022/04/27 14:18:41;;;;;;;;;;;18.00;54.10;;;;;;5068115;28;19919;-72
2022/04/27 14:21:06;;;;;;;;;;;17.90;54.30;;;;;;5068349;28;20274;-76
2022/04/27 14:23:32;;;;;;;;;;;17.80;55.00;;;;;;5067751;28;19919;-72
2022/04/27 14:25:58;;;;;;;;;;;17.80;54.50;;;;;;5068053;28;19963;-73
2022/04/27 14:28:24;;;;;;;;;;;17.80;54.60;;;;;;5067727;28;19960;-72
2022/04/27 14:30:51;;;;;;;;;;;17.90;54.50;;;;;;5067377;28;19939;-72
2022/04/27 14:33:18;;;;;;;;;;;17.90;54.60;;;;;;5067365;28;20003;-73
2022/04/27 14:35:45;;;;;;;;;;;18.10;54.60;;;;;;5069457;28;19968;-73
2022/04/27 14:38:11;;;;;;;;;;;18.10;54.30;;;;;;5103465;28;19958;-71
2022/04/27 14:40:36;;;;;;;;;;;18.10;54.30;;;;;;5071461;28;19913;-71
2022/04/27 14:43:03;;;;;;;;;;;18.10;54.40;;;;;;5071160;28;20389;-71
2022/04/27 14:45:31;;;;;;;;;;;18.00;54.10;;;;;;5071395;28;19919;-72
2022/04/27 14:47:57;;;;;;;;;;;17.90;54.30;;;;;;5069541;28;20351;-72
2022/04/27 14:50:23;;;;;;;;;;;17.80;54.60;;;;;;5071179;28;20641;-71
2022/04/27 14:52:49;;;;;;;;;;;17.70;54.50;;;;;;5071328;28;20004;-74